YCW weather

Chilliwack Airport
Chilliwack, British Columbia, Canada

Public forecast

Using degrees Celsius for public forecast. Weather courtesy of forecast.io.

Closest aviation weather report (METAR) to Chilliwack Airport

Closest report is Abbotsford Airport, 18.3 nm (33.8 km) WSW. Retrieved 2019/12/06 05:00 UTC (25 minutes ago):

CYXX 060500Z 00000KT 15SM BKN042 OVC050 05/02 A3002 RMK SC7SC1 SLP170

Closest aviation forecast (TAF) to Chilliwack Airport

Closest forecast is Abbotsford Airport, 18.3 nm (33.8 km) WSW. Retrieved 2019-12-06 00:48 UTC (5 hours ago):

TAF CYXX 052341Z 0600/0624 05005KT P6SM FEW005 SCT020 BKN040 TEMPO 0600/0616 5SM -RA BR SCT005 BKN020 OVC040 FM061600 05005KT P6SM BKN060 RMK NXT FCST BY 060600Z